sensor_id;sensor_type;location;lat;lon;timestamp;P1;durP1;ratioP1;P2;durP2;ratioP2
18194;SDS011;9223;50.988;3.162;2023-07-28T00:01:32;3.40;;;1.67;;
18194;SDS011;9223;50.988;3.162;2023-07-28T00:07:35;0.70;;;0.60;;
18194;SDS011;9223;50.988;3.162;2023-07-28T00:13:39;1.98;;;0.63;;
18194;SDS011;9223;50.988;3.162;2023-07-28T00:19:44;3.70;;;1.77;;
18194;SDS011;9223;50.988;3.162;2023-07-28T00:25:48;2.47;;;1.23;;
18194;SDS011;9223;50.988;3.162;2023-07-28T00:31:51;1.50;;;1.05;;
18194;SDS011;9223;50.988;3.162;2023-07-28T00:37:56;1.60;;;1.23;;
18194;SDS011;9223;50.988;3.162;2023-07-28T00:44:00;3.13;;;1.80;;
18194;SDS011;9223;50.988;3.162;2023-07-28T00:50:04;2.75;;;1.73;;
18194;SDS011;9223;50.988;3.162;2023-07-28T00:56:09;2.75;;;1.67;;
18194;SDS011;9223;50.988;3.162;2023-07-28T01:02:13;1.98;;;1.35;;
18194;SDS011;9223;50.988;3.162;2023-07-28T01:08:19;1.75;;;1.25;;
18194;SDS011;9223;50.988;3.162;2023-07-28T01:14:26;1.05;;;0.95;;
18194;SDS011;9223;50.988;3.162;2023-07-28T01:20:30;2.53;;;1.20;;
18194;SDS011;9223;50.988;3.162;2023-07-28T01:26:36;3.63;;;1.20;;
18194;SDS011;9223;50.988;3.162;2023-07-28T01:32:39;2.83;;;1.38;;
18194;SDS011;9223;50.988;3.162;2023-07-28T01:38:43;3.10;;;1.15;;
18194;SDS011;9223;50.988;3.162;2023-07-28T01:44:48;1.88;;;1.10;;
18194;SDS011;9223;50.988;3.162;2023-07-28T01:50:52;5.90;;;1.83;;
18194;SDS011;9223;50.988;3.162;2023-07-28T01:56:55;3.30;;;1.75;;
18194;SDS011;9223;50.988;3.162;2023-07-28T02:03:00;1.33;;;1.20;;
18194;SDS011;9223;50.988;3.162;2023-07-28T02:09:04;1.42;;;1.10;;
18194;SDS011;9223;50.988;3.162;2023-07-28T02:15:08;1.30;;;1.10;;
18194;SDS011;9223;50.988;3.162;2023-07-28T02:21:13;1.65;;;1.30;;
18194;SDS011;9223;50.988;3.162;2023-07-28T02:27:17;2.55;;;1.45;;
18194;SDS011;9223;50.988;3.162;2023-07-28T02:33:20;1.70;;;1.40;;
18194;SDS011;9223;50.988;3.162;2023-07-28T02:39:25;2.65;;;1.45;;
18194;SDS011;9223;50.988;3.162;2023-07-28T02:45:29;2.63;;;1.83;;
18194;SDS011;9223;50.988;3.162;2023-07-28T02:51:32;3.28;;;1.35;;
18194;SDS011;9223;50.988;3.162;2023-07-28T02:57:37;2.75;;;1.10;;
18194;SDS011;9223;50.988;3.162;2023-07-28T03:03:41;2.60;;;1.33;;
18194;SDS011;9223;50.988;3.162;2023-07-28T03:09:44;1.48;;;1.25;;
18194;SDS011;9223;50.988;3.162;2023-07-28T03:15:49;1.67;;;1.10;;
18194;SDS011;9223;50.988;3.162;2023-07-28T03:21:53;1.67;;;1.15;;
18194;SDS011;9223;50.988;3.162;2023-07-28T03:27:56;2.05;;;0.98;;
18194;SDS011;9223;50.988;3.162;2023-07-28T03:34:01;2.63;;;1.42;;
18194;SDS011;9223;50.988;3.162;2023-07-28T03:40:05;1.98;;;1.30;;
18194;SDS011;9223;50.988;3.162;2023-07-28T03:46:09;4.45;;;1.10;;
18194;SDS011;9223;50.988;3.162;2023-07-28T03:52:14;1.95;;;1.00;;
18194;SDS011;9223;50.988;3.162;2023-07-28T03:58:17;1.70;;;1.17;;
18194;SDS011;9223;50.988;3.162;2023-07-28T04:04:21;2.03;;;1.08;;
18194;SDS011;9223;50.988;3.162;2023-07-28T04:10:26;1.98;;;1.30;;
18194;SDS011;9223;50.988;3.162;2023-07-28T04:16:29;2.33;;;1.17;;
18194;SDS011;9223;50.988;3.162;2023-07-28T04:22:33;2.38;;;1.45;;
18194;SDS011;9223;50.988;3.162;2023-07-28T04:28:38;2.67;;;1.00;;
18194;SDS011;9223;50.988;3.162;2023-07-28T04:34:42;1.38;;;1.10;;
18194;SDS011;9223;50.988;3.162;2023-07-28T04:40:45;2.60;;;1.35;;
18194;SDS011;9223;50.988;3.162;2023-07-28T04:46:50;1.67;;;1.10;;
18194;SDS011;9223;50.988;3.162;2023-07-28T04:52:53;1.60;;;1.23;;
18194;SDS011;9223;50.988;3.162;2023-07-28T04:58:57;3.55;;;1.15;;
18194;SDS011;9223;50.988;3.162;2023-07-28T05:05:02;2.70;;;2.30;;
18194;SDS011;9223;50.988;3.162;2023-07-28T05:11:06;2.75;;;1.33;;
18194;SDS011;9223;50.988;3.162;2023-07-28T05:17:09;2.10;;;1.20;;
18194;SDS011;9223;50.988;3.162;2023-07-28T05:23:14;2.85;;;2.00;;
18194;SDS011;9223;50.988;3.162;2023-07-28T05:29:18;2.10;;;1.35;;
18194;SDS011;9223;50.988;3.162;2023-07-28T05:35:21;2.90;;;1.38;;
18194;SDS011;9223;50.988;3.162;2023-07-28T05:41:26;3.78;;;2.20;;
18194;SDS011;9223;50.988;3.162;2023-07-28T05:47:30;1.52;;;1.20;;
18194;SDS011;9223;50.988;3.162;2023-07-28T05:53:33;4.07;;;2.20;;
18194;SDS011;9223;50.988;3.162;2023-07-28T05:59:38;2.53;;;1.20;;
18194;SDS011;9223;50.988;3.162;2023-07-28T06:05:42;2.92;;;1.23;;
18194;SDS011;9223;50.988;3.162;2023-07-28T06:11:45;6.78;;;2.05;;
18194;SDS011;9223;50.988;3.162;2023-07-28T06:17:50;4.78;;;2.13;;
18194;SDS011;9223;50.988;3.162;2023-07-28T06:23:53;2.20;;;1.60;;
18194;SDS011;9223;50.988;3.162;2023-07-28T06:29:58;4.07;;;1.60;;
18194;SDS011;9223;50.988;3.162;2023-07-28T06:36:03;2.53;;;1.58;;
18194;SDS011;9223;50.988;3.162;2023-07-28T06:42:07;2.42;;;1.40;;
18194;SDS011;9223;50.988;3.162;2023-07-28T06:48:10;2.70;;;1.50;;
18194;SDS011;9223;50.988;3.162;2023-07-28T06:54:15;5.32;;;2.63;;
18194;SDS011;9223;50.988;3.162;2023-07-28T07:00:19;2.90;;;1.90;;
18194;SDS011;9223;50.988;3.162;2023-07-28T07:06:23;3.05;;;1.42;;
18194;SDS011;9223;50.988;3.162;2023-07-28T07:12:28;3.00;;;2.20;;
18194;SDS011;9223;50.988;3.162;2023-07-28T07:18:31;4.47;;;2.42;;
18194;SDS011;9223;50.988;3.162;2023-07-28T07:24:35;3.10;;;2.03;;
18194;SDS011;9223;50.988;3.162;2023-07-28T07:30:40;3.40;;;1.92;;
18194;SDS011;9223;50.988;3.162;2023-07-28T07:36:43;2.63;;;1.77;;
18194;SDS011;9223;50.988;3.162;2023-07-28T07:42:48;3.05;;;1.77;;
18194;SDS011;9223;50.988;3.162;2023-07-28T07:48:54;4.80;;;2.33;;
18194;SDS011;9223;50.988;3.162;2023-07-28T07:54:58;2.33;;;1.58;;
18194;SDS011;9223;50.988;3.162;2023-07-28T08:01:01;2.50;;;1.60;;
18194;SDS011;9223;50.988;3.162;2023-07-28T08:07:07;2.25;;;1.85;;
18194;SDS011;9223;50.988;3.162;2023-07-28T08:13:10;2.03;;;1.83;;
18194;SDS011;9223;50.988;3.162;2023-07-28T08:19:14;2.85;;;1.70;;
18194;SDS011;9223;50.988;3.162;2023-07-28T08:25:19;2.05;;;1.70;;
18194;SDS011;9223;50.988;3.162;2023-07-28T08:31:24;3.90;;;1.77;;
18194;SDS011;9223;50.988;3.162;2023-07-28T08:37:28;2.08;;;1.40;;
18194;SDS011;9223;50.988;3.162;2023-07-28T08:43:33;1.55;;;1.40;;
18194;SDS011;9223;50.988;3.162;2023-07-28T08:49:36;1.40;;;1.27;;
18194;SDS011;9223;50.988;3.162;2023-07-28T08:55:40;2.20;;;1.40;;
18194;SDS011;9223;50.988;3.162;2023-07-28T09:01:45;1.50;;;1.27;;
18194;SDS011;9223;50.988;3.162;2023-07-28T09:07:49;2.42;;;1.50;;
18194;SDS011;9223;50.988;3.162;2023-07-28T09:13:54;1.35;;;1.23;;
18194;SDS011;9223;50.988;3.162;2023-07-28T09:19:59;1.83;;;1.52;;
18194;SDS011;9223;50.988;3.162;2023-07-28T09:26:06;1.58;;;0.90;;
18194;SDS011;9223;50.988;3.162;2023-07-28T09:32:11;1.27;;;0.85;;
18194;SDS011;9223;50.988;3.162;2023-07-28T09:38:16;1.23;;;1.00;;
18194;SDS011;9223;50.988;3.162;2023-07-28T09:44:20;1.10;;;0.63;;
18194;SDS011;9223;50.988;3.162;2023-07-28T09:50:23;0.70;;;0.70;;
18194;SDS011;9223;50.988;3.162;2023-07-28T09:56:29;0.90;;;0.65;;
18194;SDS011;9223;50.988;3.162;2023-07-28T10:02:32;1.02;;;0.70;;
18194;SDS011;9223;50.988;3.162;2023-07-28T10:08:36;0.93;;;0.82;;
18194;SDS011;9223;50.988;3.162;2023-07-28T10:14:42;1.10;;;0.70;;
18194;SDS011;9223;50.988;3.162;2023-07-28T10:20:45;1.75;;;0.80;;
18194;SDS011;9223;50.988;3.162;2023-07-28T10:26:51;1.48;;;0.70;;
18194;SDS011;9223;50.988;3.162;2023-07-28T10:33:02;0.60;;;0.60;;
18194;SDS011;9223;50.988;3.162;2023-07-28T10:39:12;0.80;;;0.70;;
18194;SDS011;9223;50.988;3.162;2023-07-28T10:45:16;1.00;;;0.70;;
18194;SDS011;9223;50.988;3.162;2023-07-28T10:51:22;0.60;;;0.60;;
18194;SDS011;9223;50.988;3.162;2023-07-28T10:57:27;1.08;;;0.60;;
18194;SDS011;9223;50.988;3.162;2023-07-28T11:03:30;0.70;;;0.60;;
18194;SDS011;9223;50.988;3.162;2023-07-28T11:09:39;0.70;;;0.70;;
18194;SDS011;9223;50.988;3.162;2023-07-28T11:15:42;1.00;;;0.90;;
18194;SDS011;9223;50.988;3.162;2023-07-28T11:21:46;1.17;;;0.85;;
18194;SDS011;9223;50.988;3.162;2023-07-28T11:27:54;1.27;;;0.85;;
18194;SDS011;9223;50.988;3.162;2023-07-28T11:33:58;1.25;;;0.73;;
18194;SDS011;9223;50.988;3.162;2023-07-28T11:40:02;0.65;;;0.55;;
18194;SDS011;9223;50.988;3.162;2023-07-28T11:52:30;0.75;;;0.75;;
18194;SDS011;9223;50.988;3.162;2023-07-28T11:58:34;0.75;;;0.65;;
18194;SDS011;9223;50.988;3.162;2023-07-28T12:04:38;1.50;;;0.68;;
18194;SDS011;9223;50.988;3.162;2023-07-28T12:10:54;1.27;;;0.90;;
18194;SDS011;9223;50.988;3.162;2023-07-28T12:17:01;1.85;;;0.47;;
18194;SDS011;9223;50.988;3.162;2023-07-28T12:23:08;0.68;;;0.57;;
18194;SDS011;9223;50.988;3.162;2023-07-28T12:29:16;0.80;;;0.65;;
18194;SDS011;9223;50.988;3.162;2023-07-28T12:35:31;0.95;;;0.80;;
18194;SDS011;9223;50.988;3.162;2023-07-28T12:41:38;0.52;;;0.52;;
18194;SDS011;9223;50.988;3.162;2023-07-28T12:47:46;0.90;;;0.70;;
18194;SDS011;9223;50.988;3.162;2023-07-28T12:53:59;0.65;;;0.45;;
18194;SDS011;9223;50.988;3.162;2023-07-28T13:00:03;0.90;;;0.63;;
18194;SDS011;9223;50.988;3.162;2023-07-28T13:06:18;0.95;;;0.70;;
18194;SDS011;9223;50.988;3.162;2023-07-28T13:12:22;0.70;;;0.70;;
18194;SDS011;9223;50.988;3.162;2023-07-28T13:18:29;0.60;;;0.60;;
18194;SDS011;9223;50.988;3.162;2023-07-28T13:24:35;1.10;;;0.63;;
18194;SDS011;9223;50.988;3.162;2023-07-28T13:30:39;0.57;;;0.43;;
18194;SDS011;9223;50.988;3.162;2023-07-28T13:36:43;0.90;;;0.68;;
18194;SDS011;9223;50.988;3.162;2023-07-28T13:42:48;1.10;;;0.65;;
18194;SDS011;9223;50.988;3.162;2023-07-28T13:48:51;0.90;;;0.68;;
18194;SDS011;9223;50.988;3.162;2023-07-28T13:54:55;1.05;;;0.55;;
18194;SDS011;9223;50.988;3.162;2023-07-28T14:01:02;1.48;;;0.85;;
18194;SDS011;9223;50.988;3.162;2023-07-28T14:07:06;0.73;;;0.68;;
18194;SDS011;9223;50.988;3.162;2023-07-28T14:13:10;1.58;;;0.70;;
18194;SDS011;9223;50.988;3.162;2023-07-28T14:19:15;0.63;;;0.63;;
18194;SDS011;9223;50.988;3.162;2023-07-28T14:25:19;0.70;;;0.57;;
18194;SDS011;9223;50.988;3.162;2023-07-28T14:31:22;1.13;;;0.65;;
18194;SDS011;9223;50.988;3.162;2023-07-28T14:37:27;1.15;;;0.50;;
18194;SDS011;9223;50.988;3.162;2023-07-28T14:43:31;0.70;;;0.60;;
18194;SDS011;9223;50.988;3.162;2023-07-28T14:49:35;1.00;;;0.75;;
18194;SDS011;9223;50.988;3.162;2023-07-28T14:55:39;0.60;;;0.60;;
18194;SDS011;9223;50.988;3.162;2023-07-28T15:01:43;0.70;;;0.70;;
18194;SDS011;9223;50.988;3.162;2023-07-28T15:07:48;0.95;;;0.88;;
18194;SDS011;9223;50.988;3.162;2023-07-28T15:13:53;0.50;;;0.47;;
18194;SDS011;9223;50.988;3.162;2023-07-28T15:19:57;0.70;;;0.60;;
18194;SDS011;9223;50.988;3.162;2023-07-28T15:26:00;1.33;;;0.60;;
18194;SDS011;9223;50.988;3.162;2023-07-28T15:32:05;1.60;;;0.77;;
18194;SDS011;9223;50.988;3.162;2023-07-28T15:38:09;0.70;;;0.70;;
18194;SDS011;9223;50.988;3.162;2023-07-28T15:44:12;0.80;;;0.80;;
18194;SDS011;9223;50.988;3.162;2023-07-28T15:50:17;1.30;;;0.73;;
18194;SDS011;9223;50.988;3.162;2023-07-28T15:56:21;0.60;;;0.60;;
18194;SDS011;9223;50.988;3.162;2023-07-28T16:02:24;0.95;;;0.70;;
18194;SDS011;9223;50.988;3.162;2023-07-28T16:08:29;0.90;;;0.63;;
18194;SDS011;9223;50.988;3.162;2023-07-28T16:14:33;0.68;;;0.57;;
18194;SDS011;9223;50.988;3.162;2023-07-28T16:20:36;0.50;;;0.50;;
18194;SDS011;9223;50.988;3.162;2023-07-28T16:26:41;16.75;;;2.05;;
18194;SDS011;9223;50.988;3.162;2023-07-28T16:32:45;0.73;;;0.70;;
18194;SDS011;9223;50.988;3.162;2023-07-28T16:38:48;0.90;;;0.60;;
18194;SDS011;9223;50.988;3.162;2023-07-28T16:44:53;4.07;;;0.70;;
18194;SDS011;9223;50.988;3.162;2023-07-28T16:50:57;0.63;;;0.52;;
18194;SDS011;9223;50.988;3.162;2023-07-28T16:57:00;1.27;;;0.82;;
18194;SDS011;9223;50.988;3.162;2023-07-28T17:03:05;0.55;;;0.55;;
18194;SDS011;9223;50.988;3.162;2023-07-28T17:09:09;1.23;;;0.60;;
18194;SDS011;9223;50.988;3.162;2023-07-28T17:15:12;0.52;;;0.52;;
18194;SDS011;9223;50.988;3.162;2023-07-28T17:21:32;1.08;;;0.55;;
18194;SDS011;9223;50.988;3.162;2023-07-28T17:27:35;0.50;;;0.50;;
18194;SDS011;9223;50.988;3.162;2023-07-28T17:33:39;0.70;;;0.60;;
18194;SDS011;9223;50.988;3.162;2023-07-28T17:39:44;1.90;;;0.60;;
18194;SDS011;9223;50.988;3.162;2023-07-28T17:45:50;0.60;;;0.60;;
18194;SDS011;9223;50.988;3.162;2023-07-28T17:51:54;1.15;;;0.70;;
18194;SDS011;9223;50.988;3.162;2023-07-28T17:58:00;0.73;;;0.52;;
18194;SDS011;9223;50.988;3.162;2023-07-28T18:04:03;0.80;;;0.43;;
18194;SDS011;9223;50.988;3.162;2023-07-28T18:10:07;0.68;;;0.50;;
18194;SDS011;9223;50.988;3.162;2023-07-28T18:16:13;1.15;;;0.77;;
18194;SDS011;9223;50.988;3.162;2023-07-28T18:22:18;0.70;;;0.60;;
18194;SDS011;9223;50.988;3.162;2023-07-28T18:28:21;3.10;;;0.65;;
18194;SDS011;9223;50.988;3.162;2023-07-28T18:34:26;0.88;;;0.50;;
18194;SDS011;9223;50.988;3.162;2023-07-28T18:40:30;2.13;;;0.70;;
18194;SDS011;9223;50.988;3.162;2023-07-28T18:46:34;0.73;;;0.40;;
18194;SDS011;9223;50.988;3.162;2023-07-28T18:52:39;0.60;;;0.60;;
18194;SDS011;9223;50.988;3.162;2023-07-28T18:58:43;0.95;;;0.50;;
18194;SDS011;9223;50.988;3.162;2023-07-28T19:04:47;1.88;;;0.50;;
18194;SDS011;9223;50.988;3.162;2023-07-28T19:10:52;0.47;;;0.47;;
18194;SDS011;9223;50.988;3.162;2023-07-28T19:16:55;0.50;;;0.50;;
18194;SDS011;9223;50.988;3.162;2023-07-28T19:22:59;0.82;;;0.50;;
18194;SDS011;9223;50.988;3.162;2023-07-28T19:29:05;0.60;;;0.60;;
18194;SDS011;9223;50.988;3.162;2023-07-28T19:35:09;0.77;;;0.47;;
18194;SDS011;9223;50.988;3.162;2023-07-28T19:41:12;1.50;;;0.40;;
18194;SDS011;9223;50.988;3.162;2023-07-28T19:47:19;1.05;;;0.40;;
18194;SDS011;9223;50.988;3.162;2023-07-28T19:53:23;0.75;;;0.43;;
18194;SDS011;9223;50.988;3.162;2023-07-28T19:59:27;0.50;;;0.50;;
18194;SDS011;9223;50.988;3.162;2023-07-28T20:05:32;0.73;;;0.45;;
18194;SDS011;9223;50.988;3.162;2023-07-28T20:11:35;0.93;;;0.63;;
18194;SDS011;9223;50.988;3.162;2023-07-28T20:17:39;1.02;;;0.60;;
18194;SDS011;9223;50.988;3.162;2023-07-28T20:23:46;1.25;;;0.65;;
18194;SDS011;9223;50.988;3.162;2023-07-28T20:29:50;0.63;;;0.52;;
18194;SDS011;9223;50.988;3.162;2023-07-28T20:35:53;1.08;;;0.50;;
18194;SDS011;9223;50.988;3.162;2023-07-28T20:41:58;0.68;;;0.50;;
18194;SDS011;9223;50.988;3.162;2023-07-28T20:48:02;1.67;;;0.50;;
18194;SDS011;9223;50.988;3.162;2023-07-28T20:54:05;0.82;;;0.47;;
18194;SDS011;9223;50.988;3.162;2023-07-28T21:00:11;0.57;;;0.57;;
18194;SDS011;9223;50.988;3.162;2023-07-28T21:06:14;0.60;;;0.60;;
18194;SDS011;9223;50.988;3.162;2023-07-28T21:12:18;0.98;;;0.55;;
18194;SDS011;9223;50.988;3.162;2023-07-28T21:18:23;0.68;;;0.60;;
18194;SDS011;9223;50.988;3.162;2023-07-28T21:24:26;0.75;;;0.73;;
18194;SDS011;9223;50.988;3.162;2023-07-28T21:30:29;1.40;;;0.70;;
18194;SDS011;9223;50.988;3.162;2023-07-28T21:36:36;0.95;;;0.70;;
18194;SDS011;9223;50.988;3.162;2023-07-28T21:42:39;2.20;;;1.08;;
18194;SDS011;9223;50.988;3.162;2023-07-28T21:48:43;1.65;;;0.98;;
18194;SDS011;9223;50.988;3.162;2023-07-28T21:54:48;1.20;;;0.98;;
18194;SDS011;9223;50.988;3.162;2023-07-28T22:00:52;1.40;;;1.30;;
18194;SDS011;9223;50.988;3.162;2023-07-28T22:06:55;1.30;;;0.93;;
18194;SDS011;9223;50.988;3.162;2023-07-28T22:13:00;1.23;;;0.75;;
18194;SDS011;9223;50.988;3.162;2023-07-28T22:19:03;2.22;;;1.55;;
18194;SDS011;9223;50.988;3.162;2023-07-28T22:25:07;1.60;;;1.40;;
18194;SDS011;9223;50.988;3.162;2023-07-28T22:31:12;1.73;;;1.30;;
18194;SDS011;9223;50.988;3.162;2023-07-28T22:37:16;2.53;;;1.60;;
18194;SDS011;9223;50.988;3.162;2023-07-28T22:43:20;2.10;;;1.40;;
18194;SDS011;9223;50.988;3.162;2023-07-28T22:49:25;2.58;;;1.42;;
18194;SDS011;9223;50.988;3.162;2023-07-28T22:55:28;2.83;;;1.75;;
18194;SDS011;9223;50.988;3.162;2023-07-28T23:01:32;1.85;;;1.27;;
18194;SDS011;9223;50.988;3.162;2023-07-28T23:07:37;2.28;;;1.42;;
18194;SDS011;9223;50.988;3.162;2023-07-28T23:13:41;2.38;;;1.80;;
18194;SDS011;9223;50.988;3.162;2023-07-28T23:19:44;1.95;;;1.13;;
18194;SDS011;9223;50.988;3.162;2023-07-28T23:25:49;1.40;;;1.20;;
18194;SDS011;9223;50.988;3.162;2023-07-28T23:31:52;2.85;;;1.52;;
18194;SDS011;9223;50.988;3.162;2023-07-28T23:37:56;2.78;;;1.27;;
18194;SDS011;9223;50.988;3.162;2023-07-28T23:44:01;2.15;;;1.58;;
18194;SDS011;9223;50.988;3.162;2023-07-28T23:50:05;1.52;;;1.38;;
18194;SDS011;9223;50.988;3.162;2023-07-28T23:56:10;1.75;;;1.20;;
